Time;durP1;ratioP1;P1;durP2;ratioP2;P2;SDS_P1;SDS_P2;PMS_P1;PMS_P2;Temp;Humidity;BMP_temperature;BMP_pressure;BME280_temperature;BME280_humidity;BME280_pressure;Samples;Min_cycle;Max_cycle;Signal;HPM_P1;HPM_P2
2023/06/15 00:01:51;;;;;;;1.90;1.65;;;;;;;;;;5035834;28;20122;-82
2023/06/15 00:04:17;;;;;;;2.80;1.80;;;;;;;;;;5034070;28;20415;-82
2023/06/15 00:06:43;;;;;;;2.55;1.83;;;;;;;;;;5034345;28;20033;-82
2023/06/15 00:09:08;;;;;;;3.15;1.98;;;;;;;;;;5034257;28;20028;-82
2023/06/15 00:11:33;;;;;;;5.13;1.75;;;;;;;;;;5034190;28;20068;-82
2023/06/15 00:13:59;;;;;;;2.35;1.90;;;;;;;;;;5035365;28;20388;-82
2023/06/15 00:16:30;;;;;;;5.63;2.15;;;;;;;;;;5034229;28;20034;-82
2023/06/15 00:19:01;;;;;;;2.40;2.10;;;;;;;;;;5033853;28;20128;-83
2023/06/15 00:21:27;;;;;;;5.28;1.85;;;;;;;;;;5034262;28;20053;-82
2023/06/15 00:23:52;;;;;;;3.13;1.80;;;;;;;;;;5017348;28;20454;-82
2023/06/15 00:26:17;;;;;;;3.45;1.52;;;;;;;;;;5033139;28;20041;-80
2023/06/15 00:28:43;;;;;;;1.98;1.73;;;;;;;;;;5035353;28;20056;-84
2023/06/15 00:31:08;;;;;;;3.58;1.88;;;;;;;;;;5033815;28;20082;-82
2023/06/15 00:33:34;;;;;;;4.13;1.80;;;;;;;;;;5033727;28;20068;-82
2023/06/15 00:35:59;;;;;;;2.55;2.00;;;;;;;;;;5033622;28;20033;-82
2023/06/15 00:38:25;;;;;;;2.58;1.77;;;;;;;;;;5017008;28;20037;-83
2023/06/15 00:40:50;;;;;;;4.18;1.77;;;;;;;;;;5034944;28;20053;-82
2023/06/15 00:43:18;;;;;;;4.40;1.70;;;;;;;;;;5033515;28;20040;-83
2023/06/15 00:45:44;;;;;;;3.53;1.80;;;;;;;;;;5033523;28;20601;-83
2023/06/15 00:48:10;;;;;;;4.70;2.00;;;;;;;;;;5033894;28;20053;-82
2023/06/15 00:50:37;;;;;;;2.85;1.80;;;;;;;;;;5034956;28;20025;-83
2023/06/15 00:53:05;;;;;;;2.10;1.90;;;;;;;;;;5034574;28;20550;-83
2023/06/15 00:55:32;;;;;;;3.72;2.08;;;;;;;;;;5033358;28;20395;-82
2023/06/15 00:57:58;;;;;;;3.00;1.63;;;;;;;;;;5033537;28;20022;-83
2023/06/15 01:00:23;;;;;;;2.05;1.85;;;;;;;;;;5033276;28;20103;-83
2023/06/15 01:02:50;;;;;;;2.47;1.88;;;;;;;;;;5033251;28;20112;-83
2023/06/15 01:05:17;;;;;;;3.30;1.80;;;;;;;;;;5034437;28;20057;-82
2023/06/15 01:07:47;;;;;;;2.60;2.10;;;;;;;;;;5033127;28;20036;-83
2023/06/15 01:10:14;;;;;;;2.33;1.90;;;;;;;;;;5033358;28;20076;-83
2023/06/15 01:12:41;;;;;;;2.25;1.83;;;;;;;;;;5016549;28;20071;-83
2023/06/15 01:15:11;;;;;;;3.55;2.35;;;;;;;;;;5033022;28;20476;-82
2023/06/15 01:17:44;;;;;;;2.15;1.85;;;;;;;;;;5032923;28;20025;-82
2023/06/15 01:20:16;;;;;;;4.85;2.00;;;;;;;;;;5016889;28;20064;-83
2023/06/15 01:23:27;;;;;;;2.55;1.77;;;;;;;;;;5032783;28;20029;-83
2023/06/15 01:26:07;;;;;;;2.10;1.70;;;;;;;;;;4981078;28;20418;-82
2023/06/15 01:28:41;;;;;;;2.95;1.85;;;;;;;;;;5032979;28;20460;-82
2023/06/15 01:31:09;;;;;;;3.53;2.08;;;;;;;;;;5032822;28;20088;-83
2023/06/15 01:33:51;;;;;;;3.30;2.33;;;;;;;;;;5016107;28;20022;-83
2023/06/15 01:36:18;;;;;;;2.92;1.77;;;;;;;;;;5016030;28;20026;-83
2023/06/15 01:38:45;;;;;;;4.22;1.70;;;;;;;;;;5016037;28;20060;-82
2023/06/15 01:41:11;;;;;;;2.55;1.95;;;;;;;;;;5016021;28;20029;-82
2023/06/15 01:43:37;;;;;;;5.18;2.00;;;;;;;;;;5033870;28;20040;-81
2023/06/15 01:46:03;;;;;;;2.65;1.90;;;;;;;;;;5032170;28;20064;-82
2023/06/15 01:48:30;;;;;;;3.70;1.98;;;;;;;;;;5032739;28;20037;-82
2023/06/15 01:50:55;;;;;;;4.05;2.10;;;;;;;;;;5015764;28;20488;-82
2023/06/15 01:53:21;;;;;;;2.25;1.80;;;;;;;;;;5015768;28;20175;-82
2023/06/15 01:55:47;;;;;;;2.85;2.00;;;;;;;;;;5032612;28;20034;-82
2023/06/15 01:58:15;;;;;;;3.75;1.92;;;;;;;;;;5032093;28;20115;-82
2023/06/15 02:00:42;;;;;;;2.25;1.85;;;;;;;;;;5032183;28;20045;-83
2023/06/15 02:03:07;;;;;;;2.90;1.67;;;;;;;;;;5032275;28;20072;-83
2023/06/15 02:05:39;;;;;;;3.78;1.95;;;;;;;;;;5033372;28;20562;-83
2023/06/15 02:08:07;;;;;;;3.05;2.10;;;;;;;;;;5033471;28;20025;-83
2023/06/15 02:10:33;;;;;;;3.13;1.80;;;;;;;;;;5032371;28;20033;-82
2023/06/15 02:12:59;;;;;;;3.17;1.85;;;;;;;;;;5015638;28;20132;-82
2023/06/15 02:15:24;;;;;;;5.65;2.10;;;;;;;;;;5033272;28;20037;-82
2023/06/15 02:18:01;;;;;;;3.25;2.05;;;;;;;;;;5033087;28;20112;-82
2023/06/15 02:20:27;;;;;;;2.63;1.92;;;;;;;;;;5033144;28;20479;-82
2023/06/15 02:22:53;;;;;;;3.03;1.80;;;;;;;;;;5015449;28;20479;-82
2023/06/15 02:25:19;;;;;;;2.67;1.90;;;;;;;;;;5032563;28;20032;-82
2023/06/15 02:27:44;;;;;;;2.55;2.08;;;;;;;;;;5031949;28;20121;-83
2023/06/15 02:30:11;;;;;;;2.20;1.80;;;;;;;;;;5032238;28;20033;-82
2023/06/15 02:32:37;;;;;;;2.88;1.92;;;;;;;;;;5031823;28;20395;-82
2023/06/15 02:35:09;;;;;;;3.33;1.90;;;;;;;;;;5015354;28;20038;-82
2023/06/15 02:37:34;;;;;;;5.35;1.98;;;;;;;;;;5032939;28;20029;-82
2023/06/15 02:40:00;;;;;;;3.65;1.88;;;;;;;;;;5032112;28;20369;-83
2023/06/15 02:42:25;;;;;;;4.00;2.35;;;;;;;;;;5033476;28;20530;-82
2023/06/15 02:44:51;;;;;;;2.00;1.73;;;;;;;;;;5033267;28;20025;-82
2023/06/15 02:47:16;;;;;;;1.95;1.70;;;;;;;;;;4998708;28;20135;-82
2023/06/15 02:49:42;;;;;;;2.38;1.90;;;;;;;;;;5035305;28;20396;-82
2023/06/15 02:52:07;;;;;;;2.20;2.00;;;;;;;;;;5019035;28;20388;-82
2023/06/15 02:54:34;;;;;;;2.40;1.80;;;;;;;;;;5036918;28;20025;-82
2023/06/15 02:56:59;;;;;;;3.45;1.80;;;;;;;;;;5035492;28;20563;-81
2023/06/15 02:59:25;;;;;;;2.85;2.20;;;;;;;;;;5036766;28;20096;-81
2023/06/15 03:01:53;;;;;;;3.45;1.95;;;;;;;;;;5036881;28;20081;-81
2023/06/15 03:04:21;;;;;;;1.83;1.67;;;;;;;;;;5035211;28;20341;-83
2023/06/15 03:06:49;;;;;;;3.22;2.13;;;;;;;;;;5019101;28;20055;-83
2023/06/15 03:09:17;;;;;;;2.10;1.70;;;;;;;;;;5018922;28;20080;-84
2023/06/15 03:11:43;;;;;;;2.20;1.88;;;;;;;;;;5035097;28;20037;-84
2023/06/15 03:14:10;;;;;;;1.67;1.48;;;;;;;;;;5035184;28;20108;-83
2023/06/15 03:16:39;;;;;;;3.40;2.00;;;;;;;;;;5035115;28;20497;-84
2023/06/15 03:19:05;;;;;;;3.03;1.67;;;;;;;;;;5036470;28;20032;-84
2023/06/15 03:21:30;;;;;;;2.78;1.75;;;;;;;;;;5036420;28;20031;-83
2023/06/15 03:23:56;;;;;;;2.13;1.67;;;;;;;;;;5036237;28;20029;-84
2023/06/15 03:26:23;;;;;;;5.90;1.75;;;;;;;;;;5036078;28;20040;-83
2023/06/15 03:28:49;;;;;;;2.05;1.70;;;;;;;;;;5035890;28;20031;-82
2023/06/15 03:31:18;;;;;;;3.67;1.92;;;;;;;;;;5018446;28;20123;-82
2023/06/15 03:33:45;;;;;;;2.47;1.80;;;;;;;;;;5034812;28;20022;-82
2023/06/15 03:36:13;;;;;;;2.97;1.83;;;;;;;;;;5034691;28;20469;-82
2023/06/15 03:38:40;;;;;;;2.63;1.88;;;;;;;;;;5036100;28;20388;-83
2023/06/15 03:41:05;;;;;;;3.70;1.80;;;;;;;;;;5034784;28;20033;-84
2023/06/15 03:43:31;;;;;;;1.95;1.65;;;;;;;;;;5034799;28;20393;-83
2023/06/15 03:45:56;;;;;;;4.75;1.80;;;;;;;;;;5035742;28;20056;-83
2023/06/15 03:48:22;;;;;;;2.83;1.88;;;;;;;;;;5035240;28;20045;-83
2023/06/15 03:50:47;;;;;;;3.67;1.90;;;;;;;;;;5035713;28;20025;-83
2023/06/15 03:53:12;;;;;;;2.95;1.92;;;;;;;;;;5035596;28;20068;-83
2023/06/15 03:55:38;;;;;;;4.75;1.90;;;;;;;;;;5035000;28;20025;-82
2023/06/15 03:58:03;;;;;;;2.53;1.60;;;;;;;;;;5034300;28;20052;-83
2023/06/15 04:00:29;;;;;;;4.72;2.05;;;;;;;;;;5016580;28;20079;-83
2023/06/15 04:02:56;;;;;;;2.15;1.77;;;;;;;;;;5034290;28;20037;-83
2023/06/15 04:05:22;;;;;;;4.57;1.90;;;;;;;;;;5035620;28;20064;-79
2023/06/15 04:07:47;;;;;;;1.95;1.70;;;;;;;;;;5034923;28;20061;-84
2023/06/15 04:10:13;;;;;;;4.35;1.75;;;;;;;;;;5018494;28;20048;-83
2023/06/15 04:12:38;;;;;;;2.13;1.67;;;;;;;;;;5036273;28;20498;-81
2023/06/15 04:15:04;;;;;;;3.15;1.65;;;;;;;;;;5036265;28;20030;-80
2023/06/15 04:17:29;;;;;;;3.25;1.63;;;;;;;;;;5034430;28;20029;-82
2023/06/15 04:19:55;;;;;;;4.35;2.28;;;;;;;;;;5034588;28;20033;-80
2023/06/15 04:22:20;;;;;;;4.45;2.13;;;;;;;;;;5018213;28;20030;-78
2023/06/15 04:24:46;;;;;;;4.18;2.10;;;;;;;;;;5017921;28;20476;-78
2023/06/15 04:27:12;;;;;;;3.95;2.42;;;;;;;;;;5036394;28;20595;-79
2023/06/15 04:29:45;;;;;;;5.50;2.05;;;;;;;;;;5035823;28;20018;-80
2023/06/15 04:32:14;;;;;;;4.45;1.85;;;;;;;;;;5034382;28;20116;-83
2023/06/15 04:34:45;;;;;;;3.30;1.80;;;;;;;;;;5035721;28;20033;-81
2023/06/15 04:37:11;;;;;;;4.75;2.17;;;;;;;;;;5018362;28;20032;-82
2023/06/15 04:39:37;;;;;;;5.13;1.67;;;;;;;;;;5034048;28;20033;-82
2023/06/15 04:42:03;;;;;;;4.38;2.10;;;;;;;;;;5033948;28;20033;-81
2023/06/15 04:44:29;;;;;;;6.47;1.80;;;;;;;;;;5035470;28;20038;-83
2023/06/15 04:46:54;;;;;;;3.40;1.80;;;;;;;;;;5037073;28;20108;-83
2023/06/15 04:49:20;;;;;;;3.13;1.75;;;;;;;;;;5034383;28;20181;-84
2023/06/15 04:51:47;;;;;;;5.05;2.00;;;;;;;;;;5035539;28;20108;-77
2023/06/15 04:54:13;;;;;;;4.60;1.88;;;;;;;;;;5036131;28;20029;-82
2023/06/15 04:56:38;;;;;;;4.40;2.30;;;;;;;;;;5021570;28;20028;-81
2023/06/15 04:59:03;;;;;;;3.55;2.20;;;;;;;;;;5033703;28;20034;-86
2023/06/15 05:01:29;;;;;;;4.65;2.33;;;;;;;;;;5017430;28;20045;-82
2023/06/15 05:03:54;;;;;;;5.93;2.88;;;;;;;;;;5033832;28;20025;-84
2023/06/15 05:06:20;;;;;;;5.50;2.72;;;;;;;;;;5035258;28;20029;-84
2023/06/15 05:08:45;;;;;;;10.10;3.40;;;;;;;;;;5035460;28;20030;-84
2023/06/15 05:11:10;;;;;;;9.48;3.50;;;;;;;;;;5034976;28;20026;-85
2023/06/15 05:13:36;;;;;;;7.60;3.30;;;;;;;;;;5018559;28;20116;-85
2023/06/15 05:16:01;;;;;;;9.65;3.05;;;;;;;;;;5034257;28;20051;-84
2023/06/15 05:18:27;;;;;;;8.18;3.28;;;;;;;;;;5033766;28;20083;-84
2023/06/15 05:20:53;;;;;;;13.05;4.18;;;;;;;;;;5034905;28;20503;-83
2023/06/15 05:23:21;;;;;;;8.38;3.50;;;;;;;;;;5035813;28;20021;-84
2023/06/15 05:25:48;;;;;;;9.85;3.60;;;;;;;;;;5035882;28;20029;-84
2023/06/15 05:28:14;;;;;;;10.75;3.67;;;;;;;;;;5035251;28;20025;-84
2023/06/15 05:30:39;;;;;;;8.77;3.30;;;;;;;;;;5035153;28;20124;-84
2023/06/15 05:33:04;;;;;;;8.70;3.40;;;;;;;;;;5033718;28;20096;-85
2023/06/15 05:35:30;;;;;;;11.82;3.67;;;;;;;;;;5034238;28;20025;-85
2023/06/15 05:37:56;;;;;;;8.93;3.42;;;;;;;;;;5034720;28;20113;-85
2023/06/15 05:40:21;;;;;;;11.02;3.70;;;;;;;;;;5035275;28;20056;-85
2023/06/15 05:42:46;;;;;;;12.40;4.45;;;;;;;;;;5037271;28;20133;-85
2023/06/15 05:45:12;;;;;;;13.45;3.33;;;;;;;;;;5017494;28;20478;-85
2023/06/15 05:47:37;;;;;;;14.77;4.32;;;;;;;;;;5035853;28;20112;-84
2023/06/15 05:50:03;;;;;;;8.98;3.47;;;;;;;;;;5017026;28;20036;-84
2023/06/15 05:52:28;;;;;;;11.35;3.80;;;;;;;;;;5017480;28;20037;-85
2023/06/15 05:54:54;;;;;;;8.95;3.72;;;;;;;;;;5016979;28;20029;-85
2023/06/15 05:57:19;;;;;;;6.38;3.10;;;;;;;;;;5017203;28;20026;-84
2023/06/15 05:59:47;;;;;;;10.25;3.58;;;;;;;;;;5017023;28;20038;-84
2023/06/15 06:02:13;;;;;;;6.95;3.05;;;;;;;;;;5034421;28;20400;-84
2023/06/15 06:04:38;;;;;;;8.90;3.03;;;;;;;;;;5033296;28;20082;-84
2023/06/15 06:07:06;;;;;;;11.77;3.35;;;;;;;;;;5033864;28;20049;-84
2023/06/15 06:09:33;;;;;;;7.80;2.90;;;;;;;;;;5032505;28;20029;-84
2023/06/15 06:11:58;;;;;;;6.20;3.65;;;;;;;;;;5016401;28;20060;-84
2023/06/15 06:14:25;;;;;;;7.60;2.95;;;;;;;;;;5033452;28;20112;-86
2023/06/15 06:16:50;;;;;;;6.40;2.97;;;;;;;;;;5016278;28;20036;-82
2023/06/15 06:19:16;;;;;;;6.38;2.60;;;;;;;;;;5032604;28;20033;-82
2023/06/15 06:21:41;;;;;;;5.60;2.67;;;;;;;;;;5032727;28;20029;-83
2023/06/15 06:24:07;;;;;;;8.55;2.70;;;;;;;;;;5031567;28;20033;-83
2023/06/15 06:26:35;;;;;;;12.93;2.45;;;;;;;;;;5032626;28;20384;-83
2023/06/15 06:29:01;;;;;;;4.38;2.30;;;;;;;;;;5034401;28;20033;-83
2023/06/15 06:31:26;;;;;;;3.55;2.17;;;;;;;;;;5032655;28;20439;-83
2023/06/15 06:33:52;;;;;;;10.55;2.38;;;;;;;;;;5032592;28;20040;-83
2023/06/15 06:36:17;;;;;;;7.10;2.17;;;;;;;;;;5032612;28;20048;-84
2023/06/15 06:38:42;;;;;;;4.82;2.10;;;;;;;;;;5032347;28;20030;-84
2023/06/15 06:41:09;;;;;;;8.20;2.38;;;;;;;;;;5032317;28;20040;-83
2023/06/15 06:43:35;;;;;;;7.65;2.30;;;;;;;;;;5015835;28;20037;-80
2023/06/15 06:46:00;;;;;;;2.55;2.00;;;;;;;;;;5015950;28;20053;-82
2023/06/15 06:48:26;;;;;;;4.47;2.40;;;;;;;;;;5033621;28;20025;-79
2023/06/15 06:50:51;;;;;;;4.60;2.50;;;;;;;;;;5015806;28;20096;-82
2023/06/15 06:53:17;;;;;;;3.55;2.03;;;;;;;;;;5032088;28;20041;-83
2023/06/15 06:55:44;;;;;;;4.60;2.08;;;;;;;;;;5015804;28;20033;-82
2023/06/15 06:58:11;;;;;;;6.82;2.30;;;;;;;;;;5032578;28;20431;-83
2023/06/15 07:00:36;;;;;;;5.72;2.00;;;;;;;;;;5015924;28;20033;-81
2023/06/15 07:03:02;;;;;;;4.20;2.40;;;;;;;;;;5031893;28;20040;-82
2023/06/15 07:05:27;;;;;;;4.63;2.30;;;;;;;;;;5015502;28;20083;-82
2023/06/15 07:07:53;;;;;;;3.25;1.92;;;;;;;;;;5015824;28;20032;-84
2023/06/15 07:10:18;;;;;;;5.18;2.00;;;;;;;;;;5015550;28;20033;-86
2023/06/15 07:12:44;;;;;;;6.88;2.45;;;;;;;;;;5031778;28;20481;-85
2023/06/15 07:15:09;;;;;;;3.33;2.22;;;;;;;;;;5031999;28;20038;-85
2023/06/15 07:17:35;;;;;;;2.63;1.77;;;;;;;;;;5032156;28;20083;-85
2023/06/15 07:20:00;;;;;;;2.33;1.58;;;;;;;;;;5033245;28;20120;-85
2023/06/15 07:22:26;;;;;;;2.55;1.92;;;;;;;;;;5031663;28;20103;-85
2023/06/15 07:24:51;;;;;;;2.10;1.90;;;;;;;;;;5032991;28;20079;-86
2023/06/15 07:27:18;;;;;;;6.40;2.50;;;;;;;;;;5031551;28;20098;-85
2023/06/15 07:29:44;;;;;;;2.85;2.22;;;;;;;;;;5033120;28;20029;-85
2023/06/15 07:32:10;;;;;;;3.10;1.70;;;;;;;;;;5031673;28;20163;-85
2023/06/15 07:34:35;;;;;;;3.83;2.00;;;;;;;;;;5032089;28;20108;-85
2023/06/15 07:37:01;;;;;;;3.17;1.92;;;;;;;;;;5035028;28;20070;-85
2023/06/15 07:39:26;;;;;;;5.47;1.90;;;;;;;;;;5034843;28;20022;-85
2023/06/15 07:41:51;;;;;;;2.53;1.80;;;;;;;;;;5035028;28;20102;-85
2023/06/15 07:44:17;;;;;;;2.17;1.83;;;;;;;;;;5034833;28;20128;-85
2023/06/15 07:46:42;;;;;;;2.63;2.00;;;;;;;;;;5036192;28;20053;-86
2023/06/15 07:49:08;;;;;;;3.10;2.20;;;;;;;;;;5035504;28;20099;-86
2023/06/15 07:51:34;;;;;;;3.08;1.58;;;;;;;;;;5035385;28;20041;-86
2023/06/15 07:54:00;;;;;;;3.42;1.77;;;;;;;;;;5036042;28;20030;-86
2023/06/15 07:56:26;;;;;;;7.15;2.00;;;;;;;;;;5034919;28;20029;-82
2023/06/15 07:58:52;;;;;;;2.20;1.80;;;;;;;;;;5034503;28;20053;-82
2023/06/15 08:01:17;;;;;;;3.00;2.10;;;;;;;;;;5034996;28;20029;-82
2023/06/15 08:03:43;;;;;;;4.03;1.90;;;;;;;;;;5034650;28;20108;-82
2023/06/15 08:06:08;;;;;;;1.77;1.67;;;;;;;;;;5017927;28;20120;-82
2023/06/15 08:08:35;;;;;;;2.38;2.00;;;;;;;;;;5034405;28;20535;-82
2023/06/15 08:11:02;;;;;;;3.65;1.70;;;;;;;;;;5035999;28;20037;-82
2023/06/15 08:13:27;;;;;;;5.07;2.00;;;;;;;;;;5034473;28;20416;-82
2023/06/15 08:15:52;;;;;;;4.35;2.05;;;;;;;;;;5034312;28;20026;-82
2023/06/15 08:18:18;;;;;;;3.78;1.92;;;;;;;;;;5034571;28;20384;-82
2023/06/15 08:20:43;;;;;;;5.18;1.92;;;;;;;;;;5035669;28;20029;-82
2023/06/15 08:23:09;;;;;;;2.30;1.75;;;;;;;;;;5034850;28;20413;-82
2023/06/15 08:25:34;;;;;;;2.38;1.92;;;;;;;;;;5035002;28;20538;-82
2023/06/15 08:28:01;;;;;;;4.32;1.90;;;;;;;;;;5035370;28;20025;-81
2023/06/15 08:30:26;;;;;;;3.55;1.98;;;;;;;;;;5035449;28;20049;-82
2023/06/15 08:32:52;;;;;;;3.83;1.80;;;;;;;;;;5034116;28;20057;-82
2023/06/15 08:35:17;;;;;;;3.97;1.90;;;;;;;;;;5034159;28;20502;-83
2023/06/15 08:37:43;;;;;;;3.13;2.13;;;;;;;;;;5033987;28;20068;-81
2023/06/15 08:40:09;;;;;;;2.38;1.90;;;;;;;;;;5035246;28;20120;-82
2023/06/15 08:42:38;;;;;;;3.28;2.00;;;;;;;;;;5033948;28;20123;-82
2023/06/15 08:45:05;;;;;;;3.58;2.25;;;;;;;;;;5035090;28;20026;-83
2023/06/15 08:47:33;;;;;;;2.72;1.85;;;;;;;;;;5032929;28;20107;-83
2023/06/15 08:50:00;;;;;;;5.00;2.80;;;;;;;;;;5035282;28;20412;-83
2023/06/15 08:52:28;;;;;;;4.13;2.10;;;;;;;;;;5017147;28;20029;-82
2023/06/15 08:55:01;;;;;;;4.45;2.08;;;;;;;;;;5017130;28;20025;-83
2023/06/15 08:57:41;;;;;;;3.58;2.00;;;;;;;;;;5035133;28;20041;-83
2023/06/15 09:00:09;;;;;;;3.90;2.15;;;;;;;;;;5033469;28;20022;-83
2023/06/15 09:02:39;;;;;;;4.35;2.10;;;;;;;;;;5017115;28;20414;-83
2023/06/15 09:05:06;;;;;;;4.05;2.03;;;;;;;;;;5033757;28;20045;-83
2023/06/15 09:07:32;;;;;;;4.05;2.08;;;;;;;;;;5033432;28;20025;-83
2023/06/15 09:10:17;;;;;;;4.75;2.00;;;;;;;;;;5033532;28;20044;-83
2023/06/15 09:12:49;;;;;;;6.15;2.03;;;;;;;;;;5034766;28;20060;-82
2023/06/15 09:15:24;;;;;;;5.97;1.90;;;;;;;;;;5033275;28;20022;-82
2023/06/15 09:17:57;;;;;;;2.25;2.00;;;;;;;;;;5033190;28;20025;-83
2023/06/15 09:20:25;;;;;;;4.13;2.38;;;;;;;;;;5033253;28;20443;-83
2023/06/15 09:22:52;;;;;;;4.60;2.00;;;;;;;;;;5033089;28;20033;-83
2023/06/15 09:25:20;;;;;;;2.63;1.60;;;;;;;;;;5033085;28;20097;-82
2023/06/15 09:28:00;;;;;;;3.58;2.25;;;;;;;;;;5016490;28;20495;-82
2023/06/15 09:30:31;;;;;;;2.70;1.80;;;;;;;;;;5033046;28;20071;-82
2023/06/15 09:32:57;;;;;;;3.60;2.05;;;;;;;;;;5034216;28;20104;-82
2023/06/15 09:35:23;;;;;;;2.50;2.00;;;;;;;;;;5033009;28;20039;-83
2023/06/15 09:37:55;;;;;;;4.20;2.20;;;;;;;;;;5033914;28;20377;-82
2023/06/15 09:40:20;;;;;;;5.25;1.67;;;;;;;;;;5033668;28;20087;-82
2023/06/15 09:42:55;;;;;;;7.10;1.90;;;;;;;;;;5016486;28;20476;-82
2023/06/15 09:45:21;;;;;;;3.03;1.80;;;;;;;;;;5017034;28;20037;-82
2023/06/15 09:47:55;;;;;;;3.83;2.10;;;;;;;;;;5032635;28;20065;-82
2023/06/15 09:50:30;;;;;;;2.08;1.80;;;;;;;;;;5033205;28;20033;-82
2023/06/15 09:52:58;;;;;;;2.17;1.63;;;;;;;;;;5016345;28;20028;-83
2023/06/15 09:55:24;;;;;;;4.90;1.90;;;;;;;;;;5032924;28;20044;-82
2023/06/15 09:57:54;;;;;;;3.05;1.92;;;;;;;;;;5015663;28;20549;-82
2023/06/15 10:00:22;;;;;;;3.50;1.90;;;;;;;;;;5016724;28;20040;-81
2023/06/15 10:02:49;;;;;;;3.83;2.00;;;;;;;;;;5034248;28;20026;-82
2023/06/15 10:05:19;;;;;;;1.85;1.60;;;;;;;;;;5016137;28;20112;-81
2023/06/15 10:07:46;;;;;;;1.98;1.77;;;;;;;;;;5016375;28;20026;-82
2023/06/15 10:10:14;;;;;;;3.22;1.77;;;;;;;;;;5032758;28;20465;-82
2023/06/15 10:12:43;;;;;;;3.63;1.92;;;;;;;;;;5032346;28;20044;-82
2023/06/15 10:15:14;;;;;;;2.78;1.98;;;;;;;;;;5032597;28;20108;-82
2023/06/15 10:17:42;;;;;;;2.63;1.80;;;;;;;;;;5032345;28;20029;-81
2023/06/15 10:20:16;;;;;;;3.45;1.80;;;;;;;;;;5032929;28;20030;-82
2023/06/15 10:22:56;;;;;;;3.75;2.03;;;;;;;;;;5033013;28;20036;-82
2023/06/15 10:25:22;;;;;;;6.90;2.10;;;;;;;;;;5034258;28;20021;-83
2023/06/15 10:27:48;;;;;;;6.82;1.80;;;;;;;;;;5033599;28;20372;-83
2023/06/15 10:30:28;;;;;;;8.88;2.40;;;;;;;;;;5033440;28;20061;-83
2023/06/15 10:33:09;;;;;;;4.30;1.80;;;;;;;;;;5034994;28;20108;-84
2023/06/15 10:35:39;;;;;;;5.72;2.00;;;;;;;;;;5033914;28;20033;-84
2023/06/15 10:38:26;;;;;;;5.22;1.80;;;;;;;;;;5035168;28;20021;-84
2023/06/15 10:40:52;;;;;;;5.38;1.92;;;;;;;;;;5037065;28;20068;-85
2023/06/15 10:43:19;;;;;;;3.70;1.88;;;;;;;;;;5033881;28;20112;-85
2023/06/15 10:45:46;;;;;;;4.72;2.22;;;;;;;;;;5032091;28;20057;-85
2023/06/15 10:48:20;;;;;;;6.85;1.73;;;;;;;;;;5032457;28;20037;-85
2023/06/15 10:50:50;;;;;;;11.95;3.38;;;;;;;;;;5015792;28;20025;-82
2023/06/15 10:53:25;;;;;;;14.00;3.97;;;;;;;;;;5032081;28;20481;-81
2023/06/15 10:55:54;;;;;;;17.00;3.40;;;;;;;;;;5033646;28;20032;-81
2023/06/15 10:58:20;;;;;;;8.10;2.97;;;;;;;;;;5015362;28;20079;-82
2023/06/15 11:01:07;;;;;;;11.77;2.88;;;;;;;;;;5031904;28;20041;-81
2023/06/15 11:03:33;;;;;;;8.38;2.75;;;;;;;;;;5031757;28;20025;-81
2023/06/15 11:06:02;;;;;;;6.22;2.80;;;;;;;;;;5031743;28;20026;-81
2023/06/15 11:08:32;;;;;;;9.10;2.45;;;;;;;;;;5032090;28;20030;-82
2023/06/15 11:10:59;;;;;;;6.00;2.05;;;;;;;;;;5018298;28;20025;-82
2023/06/15 11:13:26;;;;;;;7.35;2.55;;;;;;;;;;5036812;28;20031;-82
2023/06/15 11:16:08;;;;;;;6.32;2.00;;;;;;;;;;5019086;28;20025;-82
2023/06/15 11:18:33;;;;;;;4.95;2.28;;;;;;;;;;5035237;28;20037;-82
2023/06/15 11:21:01;;;;;;;6.38;2.42;;;;;;;;;;5037230;28;20038;-81
2023/06/15 11:23:32;;;;;;;4.97;2.10;;;;;;;;;;5019593;28;20036;-82
2023/06/15 11:26:01;;;;;;;7.35;2.45;;;;;;;;;;5037267;28;20029;-81
2023/06/15 11:28:33;;;;;;;3.58;2.28;;;;;;;;;;5035814;28;20028;-81
2023/06/15 11:31:01;;;;;;;5.97;2.15;;;;;;;;;;5019420;28;20388;-82
2023/06/15 11:33:31;;;;;;;4.35;2.20;;;;;;;;;;5036767;28;20040;-81
2023/06/15 11:36:14;;;;;;;3.88;1.88;;;;;;;;;;5035812;28;20044;-81
2023/06/15 11:38:46;;;;;;;4.95;2.08;;;;;;;;;;5036636;28;20056;-80
2023/06/15 11:41:12;;;;;;;3.53;2.10;;;;;;;;;;5035714;28;20041;-81
2023/06/15 11:43:41;;;;;;;3.92;2.10;;;;;;;;;;5035579;28;20029;-82
2023/06/15 11:46:14;;;;;;;5.25;2.28;;;;;;;;;;5018426;28;20412;-81
2023/06/15 11:48:40;;;;;;;4.80;2.17;;;;;;;;;;5035402;28;20465;-82
2023/06/15 11:51:10;;;;;;;4.85;2.35;;;;;;;;;;5035211;28;20076;-84
2023/06/15 11:53:38;;;;;;;3.97;1.80;;;;;;;;;;5035496;28;20017;-81
2023/06/15 11:56:08;;;;;;;2.95;2.20;;;;;;;;;;5035065;28;20104;-81
2023/06/15 11:58:34;;;;;;;3.50;2.00;;;;;;;;;;5036046;28;20037;-81
2023/06/15 12:01:01;;;;;;;3.80;1.80;;;;;;;;;;5034724;28;20434;-81
2023/06/15 12:03:27;;;;;;;4.05;2.22;;;;;;;;;;5001960;28;20047;-80
2023/06/15 12:05:57;;;;;;;5.68;2.08;;;;;;;;;;5036066;28;20393;-79
2023/06/15 12:08:24;;;;;;;5.95;2.10;;;;;;;;;;5035067;28;20022;-80
2023/06/15 12:10:51;;;;;;;3.35;2.22;;;;;;;;;;5018639;28;20042;-80
2023/06/15 12:13:16;;;;;;;3.83;2.00;;;;;;;;;;5036116;28;20108;-81
2023/06/15 12:15:46;;;;;;;4.10;1.90;;;;;;;;;;5034555;28;20105;-82
2023/06/15 12:18:11;;;;;;;2.55;1.88;;;;;;;;;;5032661;28;20022;-82
2023/06/15 12:20:38;;;;;;;4.35;2.25;;;;;;;;;;5050563;28;20037;-82
2023/06/15 12:23:05;;;;;;;6.25;2.20;;;;;;;;;;5049236;28;20108;-82
2023/06/15 12:25:47;;;;;;;4.57;2.17;;;;;;;;;;5034045;28;20030;-82
2023/06/15 12:28:21;;;;;;;8.30;2.67;;;;;;;;;;5050141;28;20013;-82
2023/06/15 12:30:47;;;;;;;2.58;1.77;;;;;;;;;;5050699;28;20041;-82
2023/06/15 12:33:34;;;;;;;3.55;2.00;;;;;;;;;;5050293;28;20029;-82
2023/06/15 12:36:01;;;;;;;4.80;1.77;;;;;;;;;;5035167;28;20034;-81
2023/06/15 12:38:28;;;;;;;3.00;1.80;;;;;;;;;;5045384;28;20105;-81
2023/06/15 12:40:55;;;;;;;6.50;2.00;;;;;;;;;;5050431;28;20136;-81
2023/06/15 12:43:21;;;;;;;3.47;1.90;;;;;;;;;;5050082;28;20033;-82
2023/06/15 12:45:47;;;;;;;8.85;1.90;;;;;;;;;;5050309;28;20598;-81
2023/06/15 12:48:13;;;;;;;2.83;1.92;;;;;;;;;;5022251;28;20128;-82
2023/06/15 12:50:38;;;;;;;2.88;1.75;;;;;;;;;;5030269;28;20109;-81
2023/06/15 12:53:04;;;;;;;2.80;1.80;;;;;;;;;;5034024;28;20029;-80
2023/06/15 12:55:30;;;;;;;4.85;2.08;;;;;;;;;;5017105;28;20033;-80
2023/06/15 12:57:57;;;;;;;3.72;1.70;;;;;;;;;;5016662;28;20033;-81
2023/06/15 13:00:24;;;;;;;3.72;1.75;;;;;;;;;;5017147;28;20033;-81
2023/06/15 13:02:50;;;;;;;5.32;1.90;;;;;;;;;;5016638;28;20039;-81
2023/06/15 13:05:15;;;;;;;3.95;1.73;;;;;;;;;;5033220;28;20033;-82
2023/06/15 13:07:41;;;;;;;4.72;1.90;;;;;;;;;;5016685;28;20116;-81
2023/06/15 13:10:08;;;;;;;3.30;1.88;;;;;;;;;;5033225;28;20476;-81
2023/06/15 13:12:36;;;;;;;3.00;2.00;;;;;;;;;;5033071;28;20389;-82
2023/06/15 13:15:03;;;;;;;2.90;2.10;;;;;;;;;;5033038;28;20049;-81
2023/06/15 13:17:29;;;;;;;3.53;2.00;;;;;;;;;;5049453;28;20047;-82
2023/06/15 13:19:54;;;;;;;2.58;1.77;;;;;;;;;;5033794;28;20068;-80
2023/06/15 13:22:20;;;;;;;2.85;2.08;;;;;;;;;;5034186;28;20030;-81
2023/06/15 13:24:45;;;;;;;3.70;1.95;;;;;;;;;;5049244;28;20037;-81
2023/06/15 13:27:11;;;;;;;2.40;1.88;;;;;;;;;;5034058;28;20037;-82
2023/06/15 13:29:37;;;;;;;2.22;2.03;;;;;;;;;;5048901;28;20037;-83
2023/06/15 13:32:03;;;;;;;2.17;1.80;;;;;;;;;;5049477;28;20025;-82
2023/06/15 13:34:29;;;;;;;3.55;1.80;;;;;;;;;;5049002;28;20044;-80
2023/06/15 13:36:55;;;;;;;3.17;1.80;;;;;;;;;;5032542;28;20502;-82
2023/06/15 13:39:20;;;;;;;2.42;1.70;;;;;;;;;;5048372;28;20041;-81
2023/06/15 13:41:46;;;;;;;4.72;1.77;;;;;;;;;;5033799;28;20029;-81
2023/06/15 13:44:11;;;;;;;2.30;1.90;;;;;;;;;;5032279;28;20503;-81
2023/06/15 13:46:37;;;;;;;2.10;1.70;;;;;;;;;;5049114;28;20065;-81
2023/06/15 13:49:06;;;;;;;3.97;1.60;;;;;;;;;;5033017;28;20049;-81
2023/06/15 13:51:32;;;;;;;5.10;2.00;;;;;;;;;;5033668;28;20108;-82
2023/06/15 13:53:58;;;;;;;5.57;1.80;;;;;;;;;;5040715;28;20374;-83
2023/06/15 13:56:24;;;;;;;2.40;1.90;;;;;;;;;;5014059;28;20045;-82
2023/06/15 13:58:50;;;;;;;2.05;1.70;;;;;;;;;;5012185;28;20449;-82
2023/06/15 14:01:19;;;;;;;2.75;1.83;;;;;;;;;;5014289;28;20045;-82
2023/06/15 14:03:45;;;;;;;2.35;1.70;;;;;;;;;;5012563;28;20034;-82
2023/06/15 14:06:10;;;;;;;1.83;1.48;;;;;;;;;;5013444;28;20030;-82
2023/06/15 14:08:36;;;;;;;4.38;1.92;;;;;;;;;;5037284;28;20034;-83
2023/06/15 14:11:01;;;;;;;3.17;1.90;;;;;;;;;;5035518;28;20071;-80
2023/06/15 14:13:26;;;;;;;5.70;1.75;;;;;;;;;;5042497;28;20030;-83
2023/06/15 14:15:52;;;;;;;3.53;2.13;;;;;;;;;;5041065;28;20037;-83
2023/06/15 14:18:17;;;;;;;9.73;2.00;;;;;;;;;;5025735;28;20037;-82
2023/06/15 14:20:43;;;;;;;5.03;1.77;;;;;;;;;;5042315;28;20029;-82
2023/06/15 14:23:08;;;;;;;4.72;1.80;;;;;;;;;;5031989;28;20044;-83
2023/06/15 14:25:34;;;;;;;2.15;1.95;;;;;;;;;;5049137;28;20439;-83
2023/06/15 14:27:59;;;;;;;2.88;1.70;;;;;;;;;;5048364;28;20033;-83
2023/06/15 14:30:24;;;;;;;4.18;1.70;;;;;;;;;;5031865;28;20044;-84
2023/06/15 14:32:50;;;;;;;2.45;1.70;;;;;;;;;;5025088;28;20056;-83
2023/06/15 14:35:16;;;;;;;3.35;1.80;;;;;;;;;;5030091;28;20026;-83
2023/06/15 14:37:41;;;;;;;2.90;1.92;;;;;;;;;;5019736;28;20029;-83
2023/06/15 14:40:07;;;;;;;2.92;1.70;;;;;;;;;;5033187;28;20560;-83
2023/06/15 14:42:33;;;;;;;2.75;1.90;;;;;;;;;;5044587;28;20037;-83
2023/06/15 14:44:58;;;;;;;3.92;1.58;;;;;;;;;;5018068;28;20026;-82